Tofield, Canada
Current Conditions -  °F | °C
As of 1:00 PM on Monday 24 Nov 2014 (Local Time) from CYXD Reporting Station
Clear Clear  
Wind Chill: 27°   Ceiling: Unl
Heat Index: 34°   Visibility: 9mi
Dew Point: 25°   Wind: 8mph
Humidity: 70%   Direction: 230°SW
Pressure: 29.92"   Gusts: NA
Location:  53.37°N, 112.67°W
Report Text: CYXD 242000Z AUTO 23007KT 9SM CLR 01/M04 A2992 RMK SLP160
Loading
Personal Weather Stations






























Interactive Weather Map New forecast layout! Learn more

10-Day Weather Forecast

Advertisements
Track Severe Weather on mobile